Main page
METAR-TAF:

METAR-TAF

Airports :

Logroño, Spain

Logroño–Agoncillo Airport

latitude: 42-27N, longitude: 002-20W, elevation: 353 m

Current weather observation

The report was made 46 minutes ago, at 16:00 UTC
Wind 2 kt from variable directions
Temperature 32°C
Humidity 24%
Pressure 1013 hPa
Visibility 10 km or more
no clouds below 1500 m and no cumulonimbus

METAR: LELO 221600Z VRB02KT CAVOK 32/09 Q1013

Time: 18:46 (16:46 UTC)

Forecast

The report was made 2 hours and 46 minutes ago, at 14:00 UTC
Forecast valid from 22 at 15 UTC to 22 at 24 UTC
Wind 5 kt from variable directions
Visibility 10 km or more
no clouds below 1500 m and no cumulonimbus
Becoming
from 22 at 15 UTC to 22 at 17 UTC
Wind 14 kt from the North

TAF: LELO 221400Z 2215/2224 VRB05KT CAVOK BECMG 2215/2217 36014KT

Weather observations and forecasts of more than 4000 airports (METAR and TAF reports).

The available stations are represented by yellow and red dots on the map.

Hover mouse over dot to see the name of the station.

Then click to see weather observations and forecasts.

To change the map : click on the green buttons with a black cross to zoom in, on the green button with a dash to zoom out, or on the green arrows for adjacent maps.


METAR-TAF: